New Almaden, California
Current Conditions -  °F | °C
As of 6:47 PM on Saturday 25 Oct 2014 (Local Time) from KRHV Reporting Station
Scattered Clouds Scattered Clouds  
Wind Chill: 70°   Ceiling: Unl
Heat Index: 70°   Visibility: 10mi
Dew Point: 54°   Wind: 7mph
Humidity: 56%   Direction: 250°WSW
Pressure: 30.1"   Gusts: NA
Location:  37.18°N, 121.82°W
Report Text: KRHV 260147Z 25006KT 10SM SCT060 21/12 A3010
Loading
Personal Weather Stations






























Interactive Weather Map
Tropical Storm Tracking
New forecast layout! Learn more

10-Day Weather Forecast

Advertisements
Track Severe Weather on mobile